createdAt,value
2018-08-17T00:01:00.170Z,48.88
2018-08-17T00:03:28.448Z,47.75
2018-08-17T00:05:56.743Z,48.78
2018-08-17T00:08:25.054Z,48.29
2018-08-17T00:10:53.347Z,48.20
2018-08-17T00:13:21.731Z,48.08
2018-08-17T00:15:50.022Z,48.06
2018-08-17T00:18:18.338Z,48.75
2018-08-17T00:20:47.180Z,48.80
2018-08-17T00:23:15.540Z,48.33
2018-08-17T00:25:43.810Z,48.85
2018-08-17T00:28:12.090Z,48.13
2018-08-17T00:30:40.399Z,48.96
2018-08-17T00:33:08.718Z,48.07
2018-08-17T00:35:36.994Z,48.16
2018-08-17T00:38:05.476Z,48.69
2018-08-17T00:40:33.734Z,49.08
2018-08-17T00:43:02.051Z,48.99
2018-08-17T00:45:30.454Z,49.06
2018-08-17T00:47:58.773Z,48.85
2018-08-17T00:50:27.117Z,48.68
2018-08-17T00:52:55.522Z,48.19
2018-08-17T00:55:23.838Z,49.09
2018-08-17T00:57:52.161Z,48.24
2018-08-17T01:00:20.483Z,48.41
2018-08-17T01:02:49.574Z,48.40
2018-08-17T01:05:17.905Z,48.55
2018-08-17T01:07:46.195Z,48.32
2018-08-17T01:10:14.501Z,48.40
2018-08-17T01:12:42.875Z,48.34
2018-08-17T01:15:11.195Z,49.25
2018-08-17T01:17:39.535Z,49.24
2018-08-17T01:20:09.387Z,48.51
2018-08-17T01:22:37.835Z,49.29
2018-08-17T01:25:06.172Z,49.31
2018-08-17T01:27:34.485Z,49.20
2018-08-17T01:33:01.555Z,48.54
2018-08-17T01:35:29.910Z,49.36
2018-08-17T01:37:58.234Z,48.69
2018-08-17T01:40:26.498Z,49.34
2018-08-17T01:42:54.950Z,49.40
2018-08-17T01:45:23.304Z,48.63
2018-08-17T01:47:57.946Z,49.17
2018-08-17T01:50:26.346Z,49.27
2018-08-17T01:52:54.636Z,48.67
2018-08-17T01:55:23.854Z,48.72
2018-08-17T01:57:52.199Z,49.56
2018-08-17T02:00:20.486Z,48.80
2018-08-17T02:02:48.762Z,48.81
2018-08-17T02:05:17.213Z,49.65
2018-08-17T02:07:45.492Z,49.76
2018-08-17T02:10:13.785Z,48.58
2018-08-17T02:12:42.048Z,49.51
2018-08-17T02:15:10.487Z,49.73
2018-08-17T02:17:38.793Z,49.92
2018-08-17T02:20:07.170Z,49.23
2018-08-17T02:22:35.486Z,49.34
2018-08-17T02:25:03.854Z,49.63
2018-08-17T02:27:32.142Z,49.75
2018-08-17T02:30:00.567Z,49.37
2018-08-17T02:32:28.854Z,49.44
2018-08-17T02:34:57.192Z,49.30
2018-08-17T02:37:26.546Z,49.44
2018-08-17T02:39:54.829Z,49.54
2018-08-17T02:42:23.104Z,49.13
2018-08-17T02:44:51.395Z,49.02
2018-08-17T02:47:19.692Z,49.07
2018-08-17T02:49:48.047Z,49.89
2018-08-17T02:52:16.358Z,49.92
2018-08-17T02:54:44.679Z,49.19
2018-08-17T02:57:12.958Z,49.22
2018-08-17T02:59:41.334Z,49.43
2018-08-17T03:02:09.636Z,49.23
2018-08-17T03:04:38.003Z,49.33
2018-08-17T03:07:06.354Z,49.12
2018-08-17T03:09:34.676Z,49.44
2018-08-17T03:12:02.950Z,49.36
2018-08-17T03:14:31.266Z,50.08
2018-08-17T03:16:59.532Z,50.12
2018-08-17T03:19:27.823Z,49.27
2018-08-17T03:21:56.110Z,49.31
2018-08-17T03:24:24.463Z,49.31
2018-08-17T03:26:52.767Z,50.06
2018-08-17T03:29:21.039Z,49.77
2018-08-17T03:31:49.338Z,49.45
2018-08-17T03:34:17.630Z,49.34
2018-08-17T03:36:45.905Z,50.11
2018-08-17T03:39:14.218Z,49.43
2018-08-17T03:41:42.521Z,49.43
2018-08-17T03:44:10.870Z,49.24
2018-08-17T03:46:39.146Z,50.28
2018-08-17T03:49:07.454Z,50.29
2018-08-17T03:51:35.730Z,49.61
2018-08-17T03:54:04.102Z,49.84
2018-08-17T03:56:32.422Z,50.23
2018-08-17T03:59:00.681Z,49.99
2018-08-17T04:01:28.981Z,50.80
2018-08-17T04:03:57.254Z,50.07
2018-08-17T04:06:25.646Z,50.93
2018-08-17T04:08:53.938Z,50.14
2018-08-17T04:11:22.215Z,50.98
2018-08-17T04:13:50.582Z,50.95
2018-08-17T04:16:18.950Z,51.30
2018-08-17T04:18:51.483Z,50.64
2018-08-17T04:21:19.794Z,50.89
2018-08-17T04:23:48.134Z,50.82
2018-08-17T04:26:16.486Z,51.16
2018-08-17T04:28:44.762Z,51.54
2018-08-17T04:31:13.095Z,50.54
2018-08-17T04:33:41.505Z,50.59
2018-08-17T04:36:09.914Z,50.55
2018-08-17T04:38:38.198Z,50.60
2018-08-17T04:41:06.550Z,51.60
2018-08-17T04:43:34.858Z,50.92
2018-08-17T04:46:03.302Z,50.79
2018-08-17T04:48:31.937Z,51.52
2018-08-17T04:51:00.334Z,50.79
2018-08-17T04:53:28.686Z,51.61
2018-08-17T04:55:56.991Z,50.76
2018-08-17T04:58:25.418Z,50.85
2018-08-17T05:00:53.780Z,52.06
2018-08-17T05:03:22.095Z,51.90
2018-08-17T05:05:50.507Z,51.81
2018-08-17T05:08:19.082Z,51.68
2018-08-17T05:10:47.432Z,51.42
2018-08-17T05:13:15.743Z,51.88
2018-08-17T05:15:44.170Z,52.14
2018-08-17T05:18:12.514Z,52.49
2018-08-17T05:20:40.917Z,51.34
2018-08-17T05:23:09.580Z,52.28
2018-08-17T05:25:37.942Z,52.02
2018-08-17T05:28:06.345Z,51.97
2018-08-17T05:30:34.778Z,52.21
2018-08-17T05:33:03.128Z,52.26
2018-08-17T05:35:31.418Z,52.21
2018-08-17T05:37:59.747Z,52.26
2018-08-17T05:40:28.046Z,52.58
2018-08-17T05:42:56.426Z,52.35
2018-08-17T05:45:24.744Z,51.38
2018-08-17T05:47:53.189Z,51.81
2018-08-17T05:50:21.921Z,51.78
2018-08-17T05:52:51.010Z,51.79
2018-08-17T05:55:19.427Z,51.22
2018-08-17T05:57:47.738Z,51.86
2018-08-17T06:00:16.043Z,51.16
2018-08-17T06:02:44.363Z,51.31
2018-08-17T06:05:13.622Z,51.32
2018-08-17T06:07:43.094Z,51.43
2018-08-17T06:10:11.402Z,52.02
2018-08-17T06:12:39.674Z,52.35
2018-08-17T06:15:08.359Z,52.12
2018-08-17T06:17:36.866Z,51.90
2018-08-17T06:20:06.100Z,52.27
2018-08-17T06:22:34.441Z,52.29
2018-08-17T06:25:06.515Z,51.97
2018-08-17T06:27:34.890Z,52.18
2018-08-17T06:30:03.411Z,52.01
2018-08-17T06:32:31.693Z,51.58
2018-08-17T06:34:59.961Z,52.49
2018-08-17T06:37:28.301Z,52.41
2018-08-17T06:39:56.643Z,51.41
2018-08-17T06:42:25.046Z,51.77
2018-08-17T06:44:53.427Z,51.80
2018-08-17T06:47:21.794Z,51.69
2018-08-17T06:49:50.215Z,52.18
2018-08-17T06:52:18.567Z,52.34
2018-08-17T06:54:46.878Z,52.47
2018-08-17T06:57:15.268Z,52.50
2018-08-17T06:59:43.501Z,51.41
2018-08-17T07:02:11.786Z,51.62
2018-08-17T07:04:40.191Z,52.41
2018-08-17T07:07:08.526Z,51.45
2018-08-17T07:09:36.896Z,52.25
2018-08-17T07:12:05.192Z,51.66
2018-08-17T07:14:33.522Z,51.99
2018-08-17T07:17:01.786Z,52.22
2018-08-17T07:19:30.150Z,52.00
2018-08-17T07:21:58.446Z,51.54
2018-08-17T07:24:26.726Z,51.18
2018-08-17T07:26:55.007Z,51.77
2018-08-17T07:29:23.301Z,52.03
2018-08-17T07:31:51.558Z,51.90
2018-08-17T07:34:19.855Z,51.34
2018-08-17T07:36:48.122Z,51.25
2018-08-17T07:39:16.591Z,51.53
2018-08-17T07:41:44.928Z,51.11
2018-08-17T07:44:13.202Z,51.13
2018-08-17T07:46:41.486Z,51.94
2018-08-17T07:49:10.022Z,51.94
2018-08-17T07:51:38.297Z,51.84
2018-08-17T07:54:06.710Z,51.91
2018-08-17T07:56:35.000Z,51.17
2018-08-17T07:59:03.359Z,51.76
2018-08-17T08:01:31.614Z,51.39
2018-08-17T08:03:59.886Z,51.31
2018-08-17T08:06:28.210Z,51.36
2018-08-17T08:08:56.483Z,52.11
2018-08-17T08:11:24.934Z,51.59
2018-08-17T08:13:53.308Z,51.67
2018-08-17T08:16:21.731Z,51.59
2018-08-17T08:18:49.954Z,52.29
2018-08-17T08:21:18.250Z,52.36
2018-08-17T08:23:46.514Z,52.54
2018-08-17T08:26:14.887Z,51.63
2018-08-17T08:28:43.154Z,51.67
2018-08-17T08:31:11.443Z,52.39
2018-08-17T08:33:39.727Z,51.88
2018-08-17T08:36:08.086Z,51.64
2018-08-17T08:38:36.431Z,52.18
2018-08-17T08:41:05.683Z,52.47
2018-08-17T08:43:34.153Z,51.75
2018-08-17T08:46:02.641Z,52.44
2018-08-17T08:48:30.861Z,52.38
2018-08-17T08:50:59.364Z,51.67
2018-08-17T08:53:27.644Z,52.37
2018-08-17T08:55:56.712Z,51.67
2018-08-17T08:58:24.994Z,51.71
2018-08-17T09:00:53.260Z,52.48
2018-08-17T09:03:21.553Z,52.08
2018-08-17T09:05:49.874Z,51.77
2018-08-17T09:08:18.308Z,51.71
2018-08-17T09:10:46.623Z,51.69
2018-08-17T09:13:14.943Z,52.36
2018-08-17T09:15:43.271Z,51.49
2018-08-17T09:18:11.726Z,51.76
2018-08-17T09:20:40.247Z,52.68
2018-08-17T09:23:08.538Z,52.03
2018-08-17T09:25:36.897Z,52.09
2018-08-17T09:28:05.322Z,51.51
2018-08-17T09:30:33.638Z,52.30
2018-08-17T09:33:02.036Z,51.66
2018-08-17T09:35:30.393Z,51.48
2018-08-17T09:37:59.710Z,52.18
2018-08-17T09:40:28.022Z,51.67
2018-08-17T09:42:56.394Z,51.58
2018-08-17T09:45:24.713Z,52.27
2018-08-17T09:47:53.058Z,52.00
2018-08-17T09:50:21.350Z,52.17
2018-08-17T09:52:49.656Z,51.68
2018-08-17T09:55:17.998Z,51.98
2018-08-17T09:57:46.290Z,52.58
2018-08-17T10:00:14.593Z,52.33
2018-08-17T10:02:47.946Z,51.76
2018-08-17T10:05:21.374Z,52.56
2018-08-17T10:07:54.942Z,51.56
2018-08-17T10:10:24.644Z,52.53
2018-08-17T10:12:53.336Z,51.67
2018-08-17T10:15:22.907Z,51.55
2018-08-17T10:17:51.187Z,51.50
2018-08-17T10:20:20.780Z,52.21
2018-08-17T10:22:49.106Z,51.87
2018-08-17T10:25:18.971Z,52.50
2018-08-17T10:27:48.824Z,52.32
2018-08-17T10:30:18.082Z,52.30
2018-08-17T10:32:50.683Z,52.03
2018-08-17T10:35:24.337Z,52.02
2018-08-17T10:37:54.412Z,52.10
2018-08-17T10:40:22.966Z,51.69
2018-08-17T10:42:51.333Z,52.38
2018-08-17T10:45:20.235Z,52.46
2018-08-17T10:47:49.446Z,51.67
2018-08-17T10:50:22.036Z,51.56
2018-08-17T10:52:54.576Z,51.62
2018-08-17T10:55:24.129Z,51.67
2018-08-17T10:57:52.638Z,52.34
2018-08-17T11:00:22.242Z,52.24
2018-08-17T11:02:50.569Z,51.84
2018-08-17T11:05:19.150Z,51.39
2018-08-17T11:07:48.750Z,51.86
2018-08-17T11:10:17.097Z,52.16
2018-08-17T11:12:46.523Z,51.32
2018-08-17T11:15:14.870Z,51.51
2018-08-17T11:17:45.114Z,51.45
2018-08-17T11:20:14.506Z,52.26
2018-08-17T11:22:43.089Z,51.83
2018-08-17T11:25:11.427Z,51.93
2018-08-17T11:27:39.728Z,52.44
2018-08-17T11:30:11.388Z,52.18
2018-08-17T11:32:39.842Z,52.13
2018-08-17T11:35:08.216Z,52.64
2018-08-17T11:37:37.674Z,52.72
2018-08-17T11:40:07.363Z,52.65
2018-08-17T11:42:37.950Z,52.65
2018-08-17T11:45:17.231Z,52.36
2018-08-17T11:47:46.039Z,52.64
2018-08-17T11:50:15.705Z,52.56
2018-08-17T11:52:50.365Z,52.53
2018-08-17T11:55:19.205Z,52.36
2018-08-17T11:57:47.670Z,53.32
2018-08-17T12:00:16.015Z,53.48
2018-08-17T12:02:44.762Z,52.92
2018-08-17T12:05:13.202Z,52.49
2018-08-17T12:07:42.396Z,53.03
2018-08-17T12:10:10.845Z,52.95
2018-08-17T12:12:40.811Z,52.72
2018-08-17T12:15:10.937Z,53.00
2018-08-17T12:17:40.332Z,52.63
2018-08-17T12:20:08.661Z,52.36
2018-08-17T12:22:37.083Z,52.30
2018-08-17T12:25:06.461Z,52.16
2018-08-17T12:27:34.689Z,52.75
2018-08-17T12:30:03.267Z,53.02
2018-08-17T12:32:31.539Z,53.00
2018-08-17T12:34:59.950Z,52.23
2018-08-17T12:37:28.351Z,52.98
2018-08-17T12:39:56.798Z,52.96
2018-08-17T12:42:25.057Z,52.80
2018-08-17T12:44:57.366Z,52.01
2018-08-17T12:47:25.687Z,53.99
2018-08-17T12:49:54.037Z,54.24
2018-08-17T12:52:22.435Z,53.89
2018-08-17T12:54:50.738Z,55.46
2018-08-17T12:57:19.215Z,55.01
2018-08-17T12:59:47.574Z,55.14
2018-08-17T13:02:16.016Z,53.81
2018-08-17T13:04:44.330Z,54.29
2018-08-17T13:07:13.151Z,53.32
2018-08-17T13:09:41.422Z,53.95
2018-08-17T13:12:09.750Z,53.74
2018-08-17T13:14:38.128Z,53.62
2018-08-17T13:17:06.460Z,53.68
2018-08-17T13:19:34.726Z,52.52
2018-08-17T13:22:03.064Z,53.31
2018-08-17T13:24:31.342Z,53.24
2018-08-17T13:26:59.707Z,52.10
2018-08-17T13:29:28.006Z,52.20
2018-08-17T13:31:56.321Z,52.75
2018-08-17T13:34:24.596Z,52.60
2018-08-17T13:36:52.889Z,51.66
2018-08-17T13:39:21.187Z,51.52
2018-08-17T13:41:49.547Z,52.05
2018-08-17T13:44:17.974Z,52.17
2018-08-17T13:46:46.314Z,51.26
2018-08-17T13:49:14.618Z,51.94
2018-08-17T13:51:42.986Z,51.51
2018-08-17T13:54:11.295Z,52.62
2018-08-17T13:56:39.611Z,52.98
2018-08-17T13:59:08.010Z,52.36
2018-08-17T14:01:36.354Z,52.04
2018-08-17T14:04:04.638Z,51.81
2018-08-17T14:06:32.956Z,51.78
2018-08-17T14:09:01.314Z,52.71
2018-08-17T14:11:29.643Z,52.66
2018-08-17T14:13:57.969Z,52.44
2018-08-17T14:16:26.304Z,52.48
2018-08-17T14:18:54.642Z,51.75
2018-08-17T14:21:22.983Z,51.77
2018-08-17T14:23:51.282Z,51.88
2018-08-17T14:26:19.559Z,51.16
2018-08-17T14:28:47.920Z,50.83
2018-08-17T14:31:16.204Z,51.50
2018-08-17T14:33:44.507Z,50.77
2018-08-17T14:36:12.867Z,50.67
2018-08-17T14:38:41.274Z,51.03
2018-08-17T14:41:09.588Z,50.53
2018-08-17T14:43:37.893Z,50.72
2018-08-17T14:46:06.385Z,51.16
2018-08-17T14:48:34.718Z,50.36
2018-08-17T14:51:03.153Z,50.53
2018-08-17T14:53:31.461Z,49.86
2018-08-17T14:55:59.740Z,50.22
2018-08-17T14:58:28.054Z,50.12
2018-08-17T15:00:56.389Z,49.46
2018-08-17T15:03:24.679Z,49.92
2018-08-17T15:05:53.030Z,49.74
2018-08-17T15:08:21.838Z,50.94
2018-08-17T15:10:50.198Z,51.17
2018-08-17T15:13:18.519Z,51.45
2018-08-17T15:15:46.868Z,51.59
2018-08-17T15:18:15.158Z,51.52
2018-08-17T15:20:43.421Z,51.53
2018-08-17T15:23:11.738Z,51.42
2018-08-17T15:25:40.049Z,51.39
2018-08-17T15:28:08.457Z,51.47
2018-08-17T15:30:36.767Z,50.71
2018-08-17T15:33:05.142Z,50.57
2018-08-17T15:35:33.461Z,51.10
2018-08-17T15:38:01.824Z,50.33
2018-08-17T15:40:30.136Z,50.94
2018-08-17T15:43:03.741Z,50.97
2018-08-17T15:45:32.028Z,50.83
2018-08-17T15:48:00.362Z,50.21
2018-08-17T15:50:28.680Z,50.81
2018-08-17T15:52:57.107Z,50.80
2018-08-17T15:55:25.470Z,49.82
2018-08-17T15:57:54.392Z,49.74
2018-08-17T16:00:22.785Z,49.95
2018-08-17T16:02:51.099Z,50.40
2018-08-17T16:05:19.570Z,49.71
2018-08-17T16:07:47.876Z,50.06
2018-08-17T16:10:16.657Z,49.77
2018-08-17T16:12:45.653Z,49.98
2018-08-17T16:15:14.082Z,49.73
2018-08-17T16:17:42.475Z,50.50
2018-08-17T16:20:11.872Z,50.24
2018-08-17T16:22:40.497Z,50.45
2018-08-17T16:25:09.615Z,49.60
2018-08-17T16:27:38.023Z,50.36
2018-08-17T16:30:07.683Z,49.58
2018-08-17T16:32:36.046Z,49.55
2018-08-17T16:35:04.491Z,49.93
2018-08-17T16:37:32.869Z,50.28
2018-08-17T16:40:01.135Z,49.85
2018-08-17T16:42:34.081Z,49.34
2018-08-17T16:45:02.696Z,50.00
2018-08-17T16:47:31.034Z,49.92
2018-08-17T16:49:59.346Z,49.08
2018-08-17T16:52:28.586Z,49.63
2018-08-17T16:54:56.866Z,49.74
2018-08-17T16:57:25.146Z,48.92
2018-08-17T16:59:53.467Z,49.46
2018-08-17T17:02:21.758Z,49.29
2018-08-17T17:04:50.049Z,48.46
2018-08-17T17:07:18.394Z,48.73
2018-08-17T17:09:46.721Z,48.84
2018-08-17T17:12:18.023Z,48.20
2018-08-17T17:14:46.653Z,48.81
2018-08-17T17:17:15.262Z,49.31
2018-08-17T17:19:43.582Z,48.98
2018-08-17T17:22:11.870Z,50.10
2018-08-17T17:24:40.201Z,50.96
2018-08-17T17:27:08.630Z,50.65
2018-08-17T17:29:37.734Z,51.65
2018-08-17T17:32:06.534Z,52.46
2018-08-17T17:34:34.857Z,52.28
2018-08-17T17:37:03.385Z,52.89
2018-08-17T17:39:31.755Z,53.42
2018-08-17T17:42:00.090Z,52.67
2018-08-17T17:44:28.551Z,53.60
2018-08-17T17:46:56.841Z,52.63
2018-08-17T17:49:25.207Z,53.12
2018-08-17T17:51:53.617Z,53.40
2018-08-17T17:54:24.704Z,53.14
2018-08-17T17:57:01.785Z,53.40
2018-08-17T17:59:30.047Z,52.92
2018-08-17T18:01:58.389Z,52.89
2018-08-17T18:04:30.933Z,52.19
2018-08-17T18:06:59.670Z,52.16
2018-08-17T18:09:28.026Z,52.04
2018-08-17T18:11:56.466Z,51.97
2018-08-17T18:14:24.779Z,51.89
2018-08-17T18:16:53.096Z,52.34
2018-08-17T18:19:21.402Z,52.81
2018-08-17T18:21:49.706Z,52.48
2018-08-17T18:24:18.008Z,51.95
2018-08-17T18:26:47.230Z,52.95
2018-08-17T18:29:15.634Z,52.83
2018-08-17T18:31:44.113Z,52.02
2018-08-17T18:34:12.437Z,51.97
2018-08-17T18:36:40.875Z,52.72
2018-08-17T18:39:11.251Z,52.14
2018-08-17T18:41:39.695Z,52.38
2018-08-17T18:44:08.070Z,51.22
2018-08-17T18:46:36.851Z,50.69
2018-08-17T18:49:05.426Z,50.93
2018-08-17T18:51:33.837Z,49.65
2018-08-17T18:54:02.132Z,49.18
2018-08-17T18:56:30.522Z,49.54
2018-08-17T18:58:58.832Z,49.52
2018-08-17T19:01:27.126Z,48.44
2018-08-17T19:03:55.422Z,48.52
2018-08-17T19:06:23.766Z,48.79
2018-08-17T19:08:52.208Z,48.60
2018-08-17T19:11:20.518Z,47.62
2018-08-17T19:13:48.850Z,48.07
2018-08-17T19:16:17.182Z,47.41
2018-08-17T19:18:45.529Z,47.41
2018-08-17T19:21:14.706Z,47.37
2018-08-17T19:23:43.373Z,47.14
2018-08-17T19:26:12.017Z,48.00
2018-08-17T19:28:40.387Z,47.23
2018-08-17T19:31:08.750Z,47.94
2018-08-17T19:33:37.529Z,46.80
2018-08-17T19:36:05.922Z,46.64
2018-08-17T19:38:40.830Z,46.67
2018-08-17T19:41:09.299Z,46.52
2018-08-17T19:43:37.902Z,46.43
2018-08-17T19:46:06.665Z,47.40
2018-08-17T19:48:35.180Z,46.92
2018-08-17T19:51:07.763Z,46.07
2018-08-17T19:53:36.290Z,46.38
2018-08-17T19:56:04.623Z,47.05
2018-08-17T19:58:32.933Z,46.93
2018-08-17T20:01:01.285Z,46.31
2018-08-17T20:03:29.583Z,46.25
2018-08-17T20:05:57.876Z,46.93
2018-08-17T20:08:26.227Z,46.01
2018-08-17T20:10:54.642Z,45.79
2018-08-17T20:13:23.033Z,46.04
2018-08-17T20:15:51.394Z,46.35
2018-08-17T20:18:19.762Z,45.56
2018-08-17T20:20:48.205Z,46.06
2018-08-17T20:23:16.500Z,46.47
2018-08-17T20:25:44.843Z,46.73
2018-08-17T20:28:13.421Z,47.06
2018-08-17T20:30:41.770Z,46.38
2018-08-17T20:33:13.660Z,46.62
2018-08-17T20:35:41.962Z,47.54
2018-08-17T20:38:10.646Z,47.90
2018-08-17T20:40:38.919Z,46.94
2018-08-17T20:43:07.389Z,48.13
2018-08-17T20:45:35.714Z,47.94
2018-08-17T20:48:04.130Z,48.26
2018-08-17T20:50:32.478Z,48.48
2018-08-17T20:53:00.882Z,48.65
2018-08-17T20:55:29.326Z,48.00
2018-08-17T20:57:58.617Z,48.20
2018-08-17T21:00:28.372Z,47.92
2018-08-17T21:02:56.949Z,47.66
2018-08-17T21:05:25.432Z,47.38
2018-08-17T21:07:53.771Z,48.29
2018-08-17T21:10:22.255Z,47.67
2018-08-17T21:12:50.739Z,48.38
2018-08-17T21:15:19.394Z,47.81
2018-08-17T21:17:48.218Z,47.59
2018-08-17T21:20:16.530Z,48.64
2018-08-17T21:22:44.847Z,48.47
2018-08-17T21:25:13.188Z,47.90
2018-08-17T21:27:41.482Z,47.89
2018-08-17T21:30:10.275Z,47.90
2018-08-17T21:32:38.563Z,48.85
2018-08-17T21:35:07.538Z,48.42
2018-08-17T21:37:35.886Z,48.54
2018-08-17T21:40:04.850Z,48.98
2018-08-17T21:42:33.179Z,48.37
2018-08-17T21:45:01.484Z,48.82
2018-08-17T21:47:29.801Z,49.12
2018-08-17T21:50:03.230Z,48.42
2018-08-17T21:52:31.530Z,49.08
2018-08-17T21:54:59.813Z,48.44
2018-08-17T21:57:28.099Z,48.43
2018-08-17T21:59:57.002Z,48.48
2018-08-17T22:02:25.361Z,48.81
2018-08-17T22:04:53.634Z,48.83
2018-08-17T22:07:22.914Z,49.35
2018-08-17T22:09:51.924Z,49.16
2018-08-17T22:12:20.449Z,49.25
2018-08-17T22:14:49.386Z,49.82
2018-08-17T22:17:30.447Z,49.85
2018-08-17T22:19:58.889Z,49.66
2018-08-17T22:22:27.271Z,48.83
2018-08-17T22:24:56.433Z,49.25
2018-08-17T22:27:25.542Z,49.83
2018-08-17T22:29:55.130Z,49.79
2018-08-17T22:32:23.697Z,49.21
2018-08-17T22:34:52.314Z,49.56
2018-08-17T22:37:20.654Z,49.56
2018-08-17T22:39:49.041Z,49.49
2018-08-17T22:42:19.412Z,50.08
2018-08-17T22:44:47.874Z,49.60
2018-08-17T22:47:18.430Z,49.56
2018-08-17T22:49:47.123Z,50.19
2018-08-17T22:52:15.398Z,49.39
2018-08-17T22:54:51.506Z,49.43
2018-08-17T22:57:19.869Z,49.25
2018-08-17T22:59:58.987Z,49.52
2018-08-17T23:02:27.266Z,49.62
2018-08-17T23:04:55.570Z,49.58
2018-08-17T23:07:23.882Z,50.32
2018-08-17T23:09:52.202Z,49.65
2018-08-17T23:12:20.546Z,50.45
2018-08-17T23:14:48.851Z,49.59
2018-08-17T23:17:17.745Z,49.74
2018-08-17T23:19:46.046Z,49.71
2018-08-17T23:22:14.350Z,49.67
2018-08-17T23:24:42.674Z,50.52
2018-08-17T23:27:11.015Z,50.67
2018-08-17T23:29:39.310Z,50.02
2018-08-17T23:32:07.632Z,50.13
2018-08-17T23:34:35.939Z,50.25
2018-08-17T23:37:04.482Z,50.20
2018-08-17T23:39:32.774Z,50.40
2018-08-17T23:42:01.139Z,50.23
2018-08-17T23:44:29.445Z,50.22
2018-08-17T23:46:57.785Z,50.49
2018-08-17T23:49:26.131Z,50.80
2018-08-17T23:51:54.454Z,50.10
2018-08-17T23:54:22.906Z,50.87
2018-08-17T23:56:51.279Z,50.58
2018-08-17T23:59:19.594Z,50.13
